Time;durP1;ratioP1;P1;durP2;ratioP2;P2;SDS_P1;SDS_P2;PMS_P1;PMS_P2;Temp;Humidity;BMP_temperature;BMP_pressure;BME280_temperature;BME280_humidity;BME280_pressure;Samples;Min_cycle;Max_cycle;Signal;HPM_P1;HPM_P2
2021/12/31 00:00:56;;;;;;;21.27;4.40;;;11.40;99.90;;;;;;5053943;28;20100;-73
2021/12/31 00:03:22;;;;;;;17.48;3.92;;;11.60;99.90;;;;;;5054338;28;20039;-74
2021/12/31 00:05:47;;;;;;;25.00;4.18;;;11.50;99.90;;;;;;5037604;28;20118;-74
2021/12/31 00:08:13;;;;;;;17.67;3.80;;;11.60;99.90;;;;;;5054219;28;20072;-73
2021/12/31 00:10:39;;;;;;;27.77;5.22;;;11.50;99.90;;;;;;5018746;28;20044;-74
2021/12/31 00:13:05;;;;;;;15.95;3.78;;;11.60;99.90;;;;;;5034318;28;20033;-74
2021/12/31 00:15:30;;;;;;;19.98;4.32;;;11.40;99.90;;;;;;5017731;28;20098;-74
2021/12/31 00:17:56;;;;;;;22.40;4.93;;;11.80;99.90;;;;;;5034154;28;20037;-74
2021/12/31 00:20:24;;;;;;;28.15;5.70;;;11.60;99.90;;;;;;5033771;28;20063;-74
2021/12/31 00:23:04;;;;;;;33.90;5.47;;;11.60;99.90;;;;;;5034001;28;20516;-74
2021/12/31 00:25:32;;;;;;;25.08;4.45;;;11.80;99.90;;;;;;5017646;28;20436;-73
2021/12/31 00:27:57;;;;;;;17.08;3.92;;;11.90;99.90;;;;;;5033976;28;20033;-73
2021/12/31 00:30:23;;;;;;;22.63;4.22;;;11.70;99.90;;;;;;5033813;28;20108;-74
2021/12/31 00:32:49;;;;;;;32.58;6.25;;;11.80;99.90;;;;;;5033888;28;20043;-74
2021/12/31 00:35:15;;;;;;;19.73;4.95;;;11.70;99.90;;;;;;5033770;28;20076;-73
2021/12/31 00:37:41;;;;;;;23.98;4.80;;;11.90;99.90;;;;;;5033919;28;20087;-74
2021/12/31 00:40:10;;;;;;;22.30;4.28;;;11.90;99.90;;;;;;5016581;28;20488;-73
2021/12/31 00:42:36;;;;;;;22.40;4.65;;;11.80;99.90;;;;;;5017122;28;20538;-74
2021/12/31 00:45:04;;;;;;;25.45;4.95;;;11.90;99.90;;;;;;5033842;28;20132;-74
2021/12/31 00:47:30;;;;;;;31.08;5.30;;;11.70;99.90;;;;;;5033706;28;20041;-73
2021/12/31 00:49:55;;;;;;;25.98;5.35;;;11.90;99.90;;;;;;5033396;28;20048;-74
2021/12/31 00:52:21;;;;;;;16.67;4.68;;;11.70;99.90;;;;;;5017669;28;20128;-74
2021/12/31 00:54:46;;;;;;;23.85;4.85;;;11.60;99.90;;;;;;5033962;28;20045;-73
2021/12/31 00:57:12;;;;;;;23.25;4.53;;;11.80;99.90;;;;;;5033647;28;20048;-74
2021/12/31 00:59:38;;;;;;;27.23;5.15;;;11.90;99.90;;;;;;5033294;28;20044;-74
2021/12/31 01:02:05;;;;;;;24.98;4.63;;;11.70;99.90;;;;;;5033462;28;20040;-74
2021/12/31 01:04:32;;;;;;;21.45;4.40;;;11.90;99.90;;;;;;5033830;28;20037;-74
2021/12/31 01:06:58;;;;;;;27.30;5.65;;;11.80;99.90;;;;;;5033101;28;20041;-73
2021/12/31 01:09:25;;;;;;;24.90;5.07;;;11.80;99.90;;;;;;5016980;28;20033;-74
2021/12/31 01:11:51;;;;;;;17.65;4.22;;;11.80;99.90;;;;;;5033273;28;20037;-74
2021/12/31 01:14:38;;;;;;;27.45;4.43;;;11.90;99.90;;;;;;5033704;28;20570;-74
2021/12/31 01:17:08;;;;;;;21.20;4.22;;;11.80;99.90;;;;;;5033321;28;20558;-73
2021/12/31 01:19:48;;;;;;;24.15;5.40;;;12.00;99.90;;;;;;5016648;28;20033;-74
2021/12/31 01:22:21;;;;;;;19.80;4.40;;;11.80;99.90;;;;;;5033825;28;20045;-73
2021/12/31 01:24:47;;;;;;;21.30;5.00;;;12.00;99.90;;;;;;5033503;28;20052;-73
2021/12/31 01:27:13;;;;;;;16.38;3.85;;;11.90;99.90;;;;;;5033996;28;20044;-73
2021/12/31 01:29:39;;;;;;;26.60;4.72;;;11.80;99.90;;;;;;5017052;28;20047;-74
2021/12/31 01:32:05;;;;;;;27.30;4.80;;;12.00;99.90;;;;;;5034004;28;20053;-73
2021/12/31 01:34:31;;;;;;;18.83;3.75;;;12.00;99.90;;;;;;5033453;28;20043;-73
2021/12/31 01:36:59;;;;;;;20.25;5.13;;;11.90;99.90;;;;;;5032994;28;20036;-74
2021/12/31 01:39:25;;;;;;;19.77;4.15;;;11.90;99.90;;;;;;5032896;28;20041;-74
2021/12/31 01:41:50;;;;;;;17.00;4.95;;;12.00;99.90;;;;;;5033126;28;20484;-74
2021/12/31 01:44:16;;;;;;;17.38;3.60;;;11.90;99.90;;;;;;5033146;28;20037;-74
2021/12/31 01:46:59;;;;;;;21.52;4.43;;;12.00;99.90;;;;;;5033081;28;20511;-74
2021/12/31 01:49:32;;;;;;;22.70;4.25;;;12.10;99.90;;;;;;5032656;28;20086;-74
2021/12/31 01:51:58;;;;;;;32.00;4.97;;;12.00;99.90;;;;;;5036068;28;20419;-74
2021/12/31 01:54:23;;;;;;;15.32;3.50;;;12.00;99.90;;;;;;5037161;28;20127;-73
2021/12/31 01:56:51;;;;;;;12.20;4.07;;;12.20;99.90;;;;;;5036641;28;20091;-74
2021/12/31 01:59:17;;;;;;;17.90;4.20;;;12.00;99.90;;;;;;5020254;28;20044;-73
2021/12/31 02:01:44;;;;;;;17.20;4.15;;;12.20;99.90;;;;;;5036701;28;20055;-73
2021/12/31 02:04:10;;;;;;;20.73;3.83;;;12.10;99.90;;;;;;5036612;28;20044;-73
2021/12/31 02:06:36;;;;;;;19.15;4.03;;;12.10;99.90;;;;;;5036161;28;20040;-74
2021/12/31 02:09:05;;;;;;;23.60;5.00;;;12.40;99.90;;;;;;5019940;28;20033;-74
2021/12/31 02:11:30;;;;;;;18.05;4.45;;;12.40;99.90;;;;;;5019934;28;20045;-73
2021/12/31 02:13:57;;;;;;;29.27;4.38;;;12.20;99.90;;;;;;5036382;28;20045;-74
2021/12/31 02:16:23;;;;;;;13.57;4.28;;;12.30;99.90;;;;;;5036253;28;20496;-73
2021/12/31 02:18:48;;;;;;;17.42;4.43;;;12.30;99.90;;;;;;5036503;28;20039;-73
2021/12/31 02:21:14;;;;;;;14.60;3.78;;;12.20;99.90;;;;;;5035963;28;20091;-74
2021/12/31 02:23:44;;;;;;;17.42;4.10;;;12.30;99.90;;;;;;5036456;28;20438;-74
2021/12/31 02:26:11;;;;;;;17.50;4.35;;;12.40;99.90;;;;;;5035961;28;20515;-74
2021/12/31 02:28:37;;;;;;;19.02;3.85;;;12.30;99.90;;;;;;5036007;28;20083;-74
2021/12/31 02:31:03;;;;;;;16.52;3.75;;;12.30;99.90;;;;;;5035721;28;20037;-74
2021/12/31 02:33:30;;;;;;;12.95;3.92;;;12.20;99.90;;;;;;5019617;28;20091;-74
2021/12/31 02:35:57;;;;;;;12.57;4.00;;;12.20;99.90;;;;;;5036017;28;20040;-74
2021/12/31 02:38:23;;;;;;;12.80;3.35;;;12.30;99.90;;;;;;5036010;28;20041;-73
2021/12/31 02:40:48;;;;;;;13.77;3.67;;;12.40;99.90;;;;;;5019096;28;20037;-74
2021/12/31 02:43:14;;;;;;;12.15;3.47;;;12.40;99.90;;;;;;5019588;28;20033;-74
2021/12/31 02:45:41;;;;;;;14.93;3.50;;;12.40;99.90;;;;;;5035639;28;20037;-74
2021/12/31 02:48:07;;;;;;;17.60;3.58;;;12.40;99.90;;;;;;5035874;28;20538;-74
2021/12/31 02:50:38;;;;;;;21.85;3.97;;;12.30;99.90;;;;;;5019417;28;20084;-74
2021/12/31 02:53:12;;;;;;;22.80;3.42;;;12.50;99.90;;;;;;5019686;28;20043;-74
2021/12/31 02:55:40;;;;;;;17.02;3.28;;;12.20;99.90;;;;;;5019326;28;20079;-73
2021/12/31 02:58:06;;;;;;;14.88;3.92;;;12.30;99.90;;;;;;5035558;28;20084;-74
2021/12/31 03:00:35;;;;;;;13.93;3.97;;;12.50;99.90;;;;;;5018885;28;20500;-74
2021/12/31 03:03:04;;;;;;;13.85;3.78;;;12.50;99.90;;;;;;5035053;28;20443;-74
2021/12/31 03:05:31;;;;;;;14.65;3.70;;;12.20;99.90;;;;;;5035683;28;20051;-74
2021/12/31 03:07:58;;;;;;;13.38;4.00;;;12.30;99.90;;;;;;5035529;28;20041;-75
2021/12/31 03:10:26;;;;;;;17.50;3.45;;;12.30;99.90;;;;;;5047648;28;20102;-74
2021/12/31 03:12:53;;;;;;;18.25;4.05;;;12.50;99.90;;;;;;5036617;28;20067;-74
2021/12/31 03:15:18;;;;;;;13.32;3.55;;;12.40;99.90;;;;;;5035551;28;20378;-74
2021/12/31 03:17:45;;;;;;;13.55;3.40;;;12.40;99.90;;;;;;5035312;28;20162;-74
2021/12/31 03:20:24;;;;;;;21.52;4.20;;;12.20;99.90;;;;;;5018788;28;20422;-74
2021/12/31 03:22:50;;;;;;;16.60;3.88;;;12.30;99.90;;;;;;5018609;28;20040;-74
2021/12/31 03:25:15;;;;;;;12.90;4.15;;;12.40;99.90;;;;;;5034871;28;20037;-74
2021/12/31 03:27:41;;;;;;;19.70;4.40;;;12.30;99.90;;;;;;5035464;28;20063;-74
2021/12/31 03:30:10;;;;;;;13.40;3.75;;;12.20;99.90;;;;;;5018207;28;20043;-74
2021/12/31 03:32:35;;;;;;;12.95;3.78;;;12.30;99.90;;;;;;5035149;28;20051;-74
2021/12/31 03:35:01;;;;;;;13.73;3.85;;;12.30;99.90;;;;;;5035467;28;20400;-74
2021/12/31 03:37:26;;;;;;;15.23;3.50;;;12.40;99.90;;;;;;5018843;28;20037;-74
2021/12/31 03:39:52;;;;;;;18.55;3.75;;;12.50;99.90;;;;;;5018208;28;20045;-74
2021/12/31 03:42:18;;;;;;;11.50;3.10;;;12.40;99.90;;;;;;5034790;28;20047;-74
2021/12/31 03:44:44;;;;;;;13.40;3.35;;;12.30;99.90;;;;;;5034691;28;20039;-74
2021/12/31 03:47:10;;;;;;;13.10;3.30;;;12.40;99.90;;;;;;5034670;28;20439;-74
2021/12/31 03:49:35;;;;;;;19.80;4.28;;;12.40;99.90;;;;;;5034732;28;20095;-74
2021/12/31 03:52:01;;;;;;;16.10;4.72;;;12.40;99.90;;;;;;5018276;28;20493;-74
2021/12/31 03:54:26;;;;;;;13.98;3.08;;;12.50;99.90;;;;;;5034304;28;20041;-74
2021/12/31 03:56:52;;;;;;;17.05;4.30;;;12.40;99.90;;;;;;5018080;28;20048;-74
2021/12/31 03:59:18;;;;;;;13.07;3.92;;;12.40;99.90;;;;;;5034277;28;20521;-74
2021/12/31 04:01:43;;;;;;;14.88;3.42;;;12.30;99.90;;;;;;5034574;28;20045;-74
2021/12/31 04:04:09;;;;;;;12.48;2.70;;;12.40;99.90;;;;;;5034469;28;20033;-74
2021/12/31 04:06:35;;;;;;;14.18;3.00;;;12.50;99.90;;;;;;5034288;28;20045;-74
2021/12/31 04:09:01;;;;;;;12.52;2.88;;;12.30;99.90;;;;;;5033933;28;20404;-74
2021/12/31 04:11:27;;;;;;;12.00;3.35;;;12.50;99.90;;;;;;5034391;28;20590;-74
2021/12/31 04:13:52;;;;;;;11.48;3.72;;;12.60;99.90;;;;;;5033456;28;20051;-74
2021/12/31 04:16:18;;;;;;;10.10;2.78;;;12.40;99.90;;;;;;5034146;28;20068;-74
2021/12/31 04:18:43;;;;;;;10.15;2.58;;;12.40;99.90;;;;;;5034176;28;20515;-74
2021/12/31 04:21:09;;;;;;;16.48;3.60;;;12.70;99.90;;;;;;5033817;28;20131;-74
2021/12/31 04:23:47;;;;;;;10.10;2.70;;;12.60;99.90;;;;;;5033952;28;20037;-74
2021/12/31 04:26:13;;;;;;;8.93;2.67;;;12.80;99.90;;;;;;5058472;22;20049;-72
2021/12/31 04:28:39;;;;;;;16.75;4.72;;;12.70;99.90;;;;;;5017011;28;20044;-72
2021/12/31 04:31:05;;;;;;;13.32;3.38;;;12.70;99.90;;;;;;5050991;28;20408;-69
2021/12/31 04:33:30;;;;;;;16.27;2.97;;;12.60;99.90;;;;;;5034031;28;20496;-69
2021/12/31 04:35:56;;;;;;;8.48;3.22;;;13.10;99.90;;;;;;5047668;28;20033;-70
2021/12/31 04:38:21;;;;;;;12.07;3.35;;;12.60;99.90;;;;;;5031474;28;20044;-72
2021/12/31 04:40:47;;;;;;;12.73;3.65;;;12.60;99.90;;;;;;5031582;28;20075;-69
2021/12/31 04:43:13;;;;;;;10.57;3.60;;;12.70;99.90;;;;;;5013927;28;20052;-69
2021/12/31 04:45:38;;;;;;;24.33;4.57;;;12.70;99.90;;;;;;5014165;28;20037;-70
2021/12/31 04:48:04;;;;;;;8.52;2.90;;;12.70;99.90;;;;;;5014392;28;20044;-70
2021/12/31 04:50:30;;;;;;;11.35;2.72;;;12.60;99.90;;;;;;5031601;28;20029;-69
2021/12/31 04:52:56;;;;;;;8.27;2.80;;;12.70;99.90;;;;;;5013964;28;20091;-69
2021/12/31 04:55:22;;;;;;;7.97;2.60;;;12.70;99.90;;;;;;4997888;28;20136;-69
2021/12/31 04:57:49;;;;;;;10.07;2.60;;;12.70;99.90;;;;;;5001469;28;20038;-69
2021/12/31 05:00:15;;;;;;;9.95;3.00;;;12.80;99.90;;;;;;4996011;28;20037;-67
2021/12/31 05:02:41;;;;;;;8.35;2.75;;;12.70;99.90;;;;;;5006789;28;20449;-69
2021/12/31 05:05:07;;;;;;;14.55;3.15;;;12.60;99.90;;;;;;4996558;28;20037;-69
2021/12/31 05:07:33;;;;;;;12.20;3.05;;;12.80;99.90;;;;;;5011920;28;20041;-72
2021/12/31 05:09:59;;;;;;;5.68;2.72;;;;;;;;;;4997226;28;20060;-69
2021/12/31 05:12:30;;;;;;;8.20;2.67;;;12.70;99.90;;;;;;5013471;28;20037;-69
2021/12/31 05:14:56;;;;;;;7.43;2.53;;;12.60;99.90;;;;;;5010145;28;20045;-69
2021/12/31 05:17:22;;;;;;;8.52;2.53;;;12.50;99.90;;;;;;4993716;28;20516;-69
2021/12/31 05:19:47;;;;;;;10.25;2.95;;;12.50;99.90;;;;;;5010990;28;20042;-69
2021/12/31 05:22:14;;;;;;;13.52;4.07;;;12.20;99.90;;;;;;4993654;28;20524;-69
2021/12/31 05:24:40;;;;;;;9.35;2.30;;;12.10;99.90;;;;;;5024327;28;20033;-69
2021/12/31 05:27:07;;;;;;;6.97;2.78;;;12.20;99.90;;;;;;5033464;28;20033;-68
2021/12/31 05:29:33;;;;;;;9.18;3.13;;;12.30;99.90;;;;;;5020612;28;20397;-70
2021/12/31 05:31:59;;;;;;;8.15;2.95;;;12.30;99.90;;;;;;5017243;28;20052;-70
2021/12/31 05:34:25;;;;;;;6.47;2.47;;;12.30;99.90;;;;;;5017270;28;20124;-70
2021/12/31 05:36:50;;;;;;;7.35;2.60;;;12.00;99.90;;;;;;5015621;28;20048;-74
2021/12/31 05:39:16;;;;;;;6.03;2.50;;;12.00;99.90;;;;;;5015912;28;20091;-70
2021/12/31 05:41:41;;;;;;;5.72;2.80;;;12.10;99.90;;;;;;5016378;28;20073;-70
2021/12/31 05:44:08;;;;;;;8.70;2.50;;;12.20;99.90;;;;;;5000789;28;20076;-73
2021/12/31 05:46:33;;;;;;;6.55;3.40;;;12.20;99.90;;;;;;5017196;28;20396;-72
2021/12/31 05:48:59;;;;;;;10.75;2.55;;;12.30;99.90;;;;;;5016506;28;20033;-75
2021/12/31 05:51:26;;;;;;;7.57;2.40;;;12.10;99.90;;;;;;5016828;28;20095;-70
2021/12/31 05:53:52;;;;;;;9.30;2.47;;;12.10;99.90;;;;;;5016806;28;20056;-73
2021/12/31 05:56:18;;;;;;;5.47;2.10;;;12.10;99.90;;;;;;5000386;28;20037;-72
2021/12/31 05:58:44;;;;;;;8.05;2.55;;;12.20;99.90;;;;;;5016695;28;20441;-70
2021/12/31 06:01:09;;;;;;;9.30;2.72;;;12.20;99.90;;;;;;5000312;28;20042;-69
2021/12/31 06:03:35;;;;;;;7.63;2.35;;;12.30;99.90;;;;;;5000020;28;20055;-70
2021/12/31 06:06:01;;;;;;;4.88;2.28;;;12.20;99.90;;;;;;5024887;28;20046;-70
2021/12/31 06:08:26;;;;;;;7.68;2.20;;;12.30;99.90;;;;;;5007564;28;20405;-73
2021/12/31 06:10:52;;;;;;;5.93;2.15;;;12.10;99.90;;;;;;5028328;28;20443;-69
2021/12/31 06:13:18;;;;;;;9.48;3.17;;;12.20;99.90;;;;;;5021408;28;20079;-70
2021/12/31 06:15:45;;;;;;;5.10;2.10;;;12.20;99.90;;;;;;5016283;28;20045;-70
2021/12/31 06:18:11;;;;;;;7.30;2.58;;;12.20;99.90;;;;;;5014438;28;20484;-69
2021/12/31 06:20:36;;;;;;;5.53;2.65;;;12.20;99.90;;;;;;5011380;28;20045;-69
2021/12/31 06:23:02;;;;;;;8.07;2.17;;;12.10;99.90;;;;;;5019473;28;20492;-71
2021/12/31 06:25:28;;;;;;;7.97;2.20;;;12.00;99.90;;;;;;5012133;28;20048;-71
2021/12/31 06:27:53;;;;;;;5.25;2.33;;;12.00;99.90;;;;;;4992833;28;20112;-72
2021/12/31 06:30:19;;;;;;;6.95;2.40;;;12.20;99.90;;;;;;4992237;28;20076;-70
2021/12/31 06:32:45;;;;;;;4.35;1.90;;;12.20;99.90;;;;;;4992555;28;20042;-68
2021/12/31 06:35:11;;;;;;;7.38;2.55;;;12.00;99.90;;;;;;5027066;28;20044;-70
2021/12/31 06:37:37;;;;;;;5.40;2.47;;;12.00;99.90;;;;;;5014432;28;20575;-69
2021/12/31 06:40:07;;;;;;;10.43;2.85;;;11.90;99.90;;;;;;5007506;28;20124;-70
2021/12/31 06:42:35;;;;;;;10.45;3.05;;;12.00;99.90;;;;;;4996763;28;20042;-71
2021/12/31 06:45:00;;;;;;;6.15;2.75;;;12.00;99.90;;;;;;5003493;28;20048;-72
2021/12/31 06:47:26;;;;;;;6.50;2.47;;;11.90;99.90;;;;;;5014745;28;20036;-69
2021/12/31 06:49:51;;;;;;;6.05;2.88;;;11.70;99.90;;;;;;5007629;28;20042;-69
2021/12/31 06:52:17;;;;;;;7.18;2.97;;;11.80;99.90;;;;;;5011485;28;20034;-70
2021/12/31 06:54:42;;;;;;;9.38;2.78;;;11.90;99.90;;;;;;5013086;28;20068;-69
2021/12/31 06:57:08;;;;;;;9.93;3.05;;;11.80;99.90;;;;;;5012724;28;20054;-69
2021/12/31 06:59:34;;;;;;;6.78;2.72;;;11.80;99.90;;;;;;4996001;28;20051;-71
2021/12/31 07:01:59;;;;;;;10.00;2.67;;;11.60;99.90;;;;;;5011411;28;20409;-69
2021/12/31 07:04:25;;;;;;;8.15;2.30;;;12.00;99.90;;;;;;4995797;28;20040;-69
2021/12/31 07:06:50;;;;;;;3.78;1.85;;;11.90;99.90;;;;;;5012330;28;20162;-68
2021/12/31 07:09:16;;;;;;;8.23;3.08;;;11.90;99.90;;;;;;5011794;28;20040;-71
2021/12/31 07:11:41;;;;;;;10.13;2.50;;;11.80;99.90;;;;;;5012054;28;20099;-70
2021/12/31 07:14:07;;;;;;;5.85;1.98;;;11.90;99.90;;;;;;5009013;28;20060;-72
2021/12/31 07:16:33;;;;;;;5.15;2.03;;;11.90;99.90;;;;;;5011303;28;20045;-71
2021/12/31 07:18:58;;;;;;;5.13;2.10;;;11.70;99.90;;;;;;5011981;28;20057;-73
2021/12/31 07:21:24;;;;;;;8.88;2.10;;;11.80;99.90;;;;;;5011438;28;20034;-70
2021/12/31 07:23:49;;;;;;;5.20;2.70;;;11.80;99.90;;;;;;5008841;28;20083;-70
2021/12/31 07:26:15;;;;;;;6.13;2.72;;;11.70;99.90;;;;;;5001132;28;20033;-73
2021/12/31 07:28:40;;;;;;;3.53;2.20;;;11.70;99.90;;;;;;5005205;28;20038;-70
2021/12/31 07:31:11;;;;;;;4.60;2.28;;;11.80;99.90;;;;;;5002623;28;20037;-70
2021/12/31 07:33:37;;;;;;;6.50;2.53;;;11.80;99.90;;;;;;5002940;28;20041;-71
2021/12/31 07:36:03;;;;;;;5.40;2.20;;;11.60;99.90;;;;;;5004587;28;20052;-70
2021/12/31 07:38:33;;;;;;;4.05;2.20;;;11.80;99.90;;;;;;4987209;28;20029;-70
2021/12/31 07:40:59;;;;;;;5.63;2.65;;;11.90;99.90;;;;;;5002184;28;20053;-70
2021/12/31 07:43:25;;;;;;;6.80;2.15;;;11.80;99.90;;;;;;5024279;28;20426;-70
2021/12/31 07:45:53;;;;;;;7.47;2.30;;;11.80;99.90;;;;;;5011355;28;20037;-70
2021/12/31 07:48:20;;;;;;;9.40;2.22;;;11.80;99.90;;;;;;5004588;28;20041;-70
2021/12/31 07:50:46;;;;;;;5.90;2.50;;;12.00;99.90;;;;;;5002443;28;20034;-70
2021/12/31 07:53:12;;;;;;;5.88;2.10;;;11.90;99.90;;;;;;5003234;28;20037;-70
2021/12/31 07:55:38;;;;;;;10.02;3.50;;;11.90;99.90;;;;;;5004227;28;20048;-70
2021/12/31 07:58:07;;;;;;;5.57;2.30;;;12.00;99.90;;;;;;5001584;28;20524;-70
2021/12/31 08:00:33;;;;;;;10.05;3.03;;;12.00;99.90;;;;;;4988008;28;20034;-71
2021/12/31 08:03:00;;;;;;;9.50;2.70;;;12.10;99.90;;;;;;5008739;28;20037;-70
2021/12/31 08:05:27;;;;;;;7.05;2.50;;;11.90;99.90;;;;;;5014356;28;20033;-72
2021/12/31 08:07:52;;;;;;;7.38;2.40;;;11.90;99.90;;;;;;5007127;28;20124;-70
2021/12/31 08:10:19;;;;;;;5.63;2.20;;;11.90;99.90;;;;;;5001963;28;20565;-71
2021/12/31 08:12:44;;;;;;;6.80;2.05;;;12.10;99.90;;;;;;5004671;28;20037;-70
2021/12/31 08:15:10;;;;;;;7.38;2.47;;;11.90;99.90;;;;;;5003493;28;20039;-71
2021/12/31 08:17:36;;;;;;;6.78;2.25;;;11.90;99.90;;;;;;5003605;28;20045;-70
2021/12/31 08:20:02;;;;;;;6.50;2.38;;;11.80;99.90;;;;;;4990660;28;20086;-70
2021/12/31 08:22:28;;;;;;;7.47;2.40;;;11.90;99.90;;;;;;5011949;28;20038;-70
2021/12/31 08:24:53;;;;;;;7.25;2.53;;;11.80;99.90;;;;;;5003532;28;20519;-70
2021/12/31 08:27:19;;;;;;;6.38;2.47;;;11.80;99.90;;;;;;5001576;28;20803;-71
2021/12/31 08:29:44;;;;;;;7.07;2.45;;;11.90;99.90;;;;;;5001583;28;20121;-69
2021/12/31 08:32:10;;;;;;;6.10;2.53;;;11.80;99.90;;;;;;5002411;28;20037;-69
2021/12/31 08:34:36;;;;;;;6.85;2.42;;;11.70;99.90;;;;;;5006531;28;20457;-69
2021/12/31 08:37:02;;;;;;;7.78;2.78;;;11.80;99.90;;;;;;5001773;28;20084;-70
2021/12/31 08:39:28;;;;;;;7.93;2.58;;;11.80;99.90;;;;;;5011370;28;20037;-70
2021/12/31 08:41:53;;;;;;;9.07;3.50;;;11.80;99.90;;;;;;5002600;28;20030;-70
2021/12/31 08:44:19;;;;;;;7.05;2.58;;;11.80;99.90;;;;;;5011634;28;20095;-70
2021/12/31 08:46:44;;;;;;;8.70;2.22;;;11.90;99.90;;;;;;5001418;28;20511;-70
2021/12/31 08:49:10;;;;;;;4.88;2.65;;;11.80;99.90;;;;;;4983832;28;20405;-71
2021/12/31 08:51:36;;;;;;;9.98;2.72;;;11.90;99.90;;;;;;5001134;28;20123;-70
2021/12/31 08:54:01;;;;;;;5.38;2.58;;;11.80;99.90;;;;;;4996409;28;20038;-69
2021/12/31 08:56:27;;;;;;;6.80;3.35;;;12.00;99.90;;;;;;4998819;28;20056;-70
2021/12/31 08:58:53;;;;;;;8.93;2.67;;;11.90;99.90;;;;;;5009118;28;20045;-72
2021/12/31 09:01:19;;;;;;;6.60;3.33;;;11.80;99.90;;;;;;5002888;28;20045;-68
2021/12/31 09:03:44;;;;;;;7.85;3.85;;;11.70;99.90;;;;;;5002772;28;20069;-70
2021/12/31 09:06:11;;;;;;;11.43;2.80;;;11.80;99.90;;;;;;5001393;28;20493;-69
2021/12/31 09:08:37;;;;;;;5.63;2.60;;;11.80;99.90;;;;;;5001004;28;20042;-73
2021/12/31 09:11:03;;;;;;;6.70;2.67;;;11.90;99.90;;;;;;4987881;28;20504;-69
2021/12/31 09:13:28;;;;;;;3.22;2.45;;;11.80;99.90;;;;;;5000490;28;20030;-70
2021/12/31 09:15:55;;;;;;;6.78;2.78;;;11.80;99.90;;;;;;5014992;28;20073;-70
2021/12/31 09:18:21;;;;;;;8.55;2.45;;;11.70;99.90;;;;;;5012939;28;20037;-69
2021/12/31 09:20:48;;;;;;;10.20;2.65;;;11.80;99.90;;;;;;5027989;28;20048;-69
2021/12/31 09:23:13;;;;;;;9.00;2.80;;;11.70;99.90;;;;;;5029862;28;20119;-69
2021/12/31 09:25:39;;;;;;;5.50;3.25;;;11.80;99.90;;;;;;5029471;28;20202;-70
2021/12/31 09:28:04;;;;;;;7.93;2.78;;;11.90;99.90;;;;;;5021231;28;20061;-72
2021/12/31 09:30:30;;;;;;;9.57;2.83;;;11.70;99.90;;;;;;4990359;28;20524;-70
2021/12/31 09:32:56;;;;;;;6.88;3.30;;;11.60;99.90;;;;;;4991745;28;20038;-71
2021/12/31 09:35:22;;;;;;;9.20;3.22;;;11.80;99.90;;;;;;5006167;28;20411;-69
2021/12/31 09:37:47;;;;;;;5.63;2.78;;;11.80;99.90;;;;;;5009904;28;20099;-70
2021/12/31 09:40:18;;;;;;;5.32;2.85;;;11.90;99.90;;;;;;4996628;28;20050;-69
2021/12/31 09:42:51;;;;;;;8.23;3.00;;;11.80;99.90;;;;;;4977313;28;20100;-69
2021/12/31 09:45:17;;;;;;;9.90;4.10;;;11.80;99.90;;;;;;4993759;28;20044;-69
2021/12/31 09:47:43;;;;;;;14.80;4.15;;;11.60;99.90;;;;;;4993674;28;20049;-69
2021/12/31 09:50:09;;;;;;;11.60;3.80;;;11.70;99.90;;;;;;4993238;28;20413;-69
2021/12/31 09:52:35;;;;;;;6.97;3.53;;;11.60;99.90;;;;;;4977334;28;20048;-70
2021/12/31 09:55:01;;;;;;;12.02;3.78;;;11.60;99.90;;;;;;4993188;28;20092;-69
2021/12/31 09:57:27;;;;;;;10.48;4.15;;;11.70;99.90;;;;;;4993231;28;20073;-69
2021/12/31 09:59:54;;;;;;;12.93;4.07;;;11.70;99.90;;;;;;4992955;28;20045;-69
2021/12/31 10:02:34;;;;;;;9.80;3.42;;;11.70;99.90;;;;;;4977092;28;20045;-69
2021/12/31 10:05:04;;;;;;;10.70;3.20;;;11.60;99.90;;;;;;5001231;28;20033;-69
2021/12/31 10:07:30;;;;;;;9.30;3.35;;;11.80;99.90;;;;;;5029223;28;20044;-69
2021/12/31 10:10:08;;;;;;;14.30;3.13;;;11.80;99.90;;;;;;5029124;28;20044;-69
2021/12/31 10:12:43;;;;;;;10.82;3.83;;;11.70;99.90;;;;;;5015037;28;20081;-69
2021/12/31 10:15:09;;;;;;;7.20;3.67;;;11.70;99.90;;;;;;5014677;28;20041;-69
2021/12/31 10:17:35;;;;;;;8.77;3.63;;;11.80;99.90;;;;;;5016238;28;20095;-69
2021/12/31 10:20:01;;;;;;;11.80;4.20;;;11.70;99.90;;;;;;5018953;28;20047;-69
2021/12/31 10:22:26;;;;;;;9.77;3.40;;;11.70;99.90;;;;;;5028499;28;20044;-69
2021/12/31 10:24:52;;;;;;;10.23;3.60;;;11.70;99.90;;;;;;5014009;28;20045;-72
2021/12/31 10:27:20;;;;;;;9.80;3.90;;;11.80;99.90;;;;;;5057381;22;20148;-76
2021/12/31 10:30:06;;;;;;;12.05;3.88;;;11.90;99.90;;;;;;5017159;28;20452;-77
2021/12/31 10:32:40;;;;;;;14.45;5.10;;;11.70;99.90;;;;;;5016225;28;20048;-76
2021/12/31 10:35:21;;;;;;;10.57;3.50;;;11.80;99.90;;;;;;5033257;28;20084;-76
2021/12/31 10:37:48;;;;;;;9.13;3.90;;;11.80;99.90;;;;;;5014797;28;20041;-76
2021/12/31 10:40:30;;;;;;;13.02;4.65;;;11.70;99.90;;;;;;5019202;28;20073;-76
2021/12/31 10:43:18;;;;;;;8.85;3.90;;;11.70;99.90;;;;;;5035572;28;20037;-77
2021/12/31 10:46:10;;;;;;;8.60;4.03;;;11.70;99.90;;;;;;5035606;28;20044;-76
2021/12/31 10:48:50;;;;;;;9.13;4.38;;;11.60;99.90;;;;;;5027361;28;20101;-76
2021/12/31 10:51:39;;;;;;;7.65;3.80;;;11.50;99.90;;;;;;5026669;28;20037;-76
2021/12/31 10:54:42;;;;;;;9.55;3.75;;;11.40;99.90;;;;;;5026476;28;20048;-78
2021/12/31 10:57:08;;;;;;;10.90;4.13;;;11.50;99.90;;;;;;5006897;28;20124;-76
2021/12/31 10:59:37;;;;;;;10.50;4.55;;;11.40;99.90;;;;;;5024899;28;20116;-77
2021/12/31 11:02:04;;;;;;;10.95;3.92;;;11.40;99.90;;;;;;5011915;28;20047;-77
2021/12/31 11:04:32;;;;;;;11.05;3.78;;;11.50;99.90;;;;;;5026585;28;20120;-78
2021/12/31 11:07:00;;;;;;;11.48;4.88;;;11.40;99.90;;;;;;5008530;28;20043;-77
2021/12/31 11:09:29;;;;;;;12.73;4.40;;;11.40;99.90;;;;;;5033819;28;20443;-77
2021/12/31 11:11:57;;;;;;;11.30;4.13;;;11.40;99.90;;;;;;5022259;28;20385;-76
2021/12/31 11:14:24;;;;;;;13.70;4.85;;;11.40;99.90;;;;;;5042156;28;20036;-76
2021/12/31 11:16:49;;;;;;;11.57;4.82;;;11.50;99.90;;;;;;5049080;28;20045;-78
2021/12/31 11:19:16;;;;;;;11.38;4.07;;;11.40;99.90;;;;;;5023608;28;20045;-76
2021/12/31 11:21:43;;;;;;;8.57;4.32;;;;;;;;;;5026309;28;20033;-76
2021/12/31 11:24:29;;;;;;;9.55;4.40;;;11.70;99.90;;;;;;5049552;28;20590;-76
2021/12/31 11:26:56;;;;;;;13.85;5.32;;;11.40;99.90;;;;;;5053408;28;20052;-77
2021/12/31 11:29:21;;;;;;;9.18;3.80;;;11.40;99.90;;;;;;5042416;28;20033;-78
2021/12/31 11:31:47;;;;;;;9.93;4.60;;;11.10;99.90;;;;;;5043092;28;20504;-79
2021/12/31 11:34:15;;;;;;;10.05;4.88;;;11.30;99.90;;;;;;5024289;28;20124;-77
2021/12/31 11:36:43;;;;;;;14.75;5.13;;;11.30;99.90;;;;;;5038816;28;20033;-77
2021/12/31 11:39:29;;;;;;;11.73;4.88;;;11.40;99.90;;;;;;5038195;28;20052;-77
2021/12/31 11:42:04;;;;;;;13.40;4.80;;;11.40;99.90;;;;;;5038572;28;20055;-79
2021/12/31 11:44:31;;;;;;;9.38;4.70;;;11.30;99.90;;;;;;5038670;28;20033;-78
2021/12/31 11:47:17;;;;;;;11.90;4.60;;;11.20;99.90;;;;;;5023052;28;20041;-79
2021/12/31 11:49:45;;;;;;;18.38;5.75;;;11.30;99.90;;;;;;5043485;28;20049;-79
2021/12/31 11:52:14;;;;;;;14.80;5.55;;;11.20;99.90;;;;;;5039551;28;20041;-79
2021/12/31 11:54:40;;;;;;;11.00;5.00;;;11.30;99.90;;;;;;5025385;28;20044;-78
2021/12/31 11:57:18;;;;;;;19.92;5.53;;;11.30;99.90;;;;;;5041642;28;20400;-78
2021/12/31 11:59:44;;;;;;;13.68;5.47;;;11.40;99.90;;;;;;5013873;28;20048;-78
2021/12/31 12:02:18;;;;;;;17.95;6.28;;;11.20;99.90;;;;;;5015016;28;20050;-76
2021/12/31 12:05:00;;;;;;;15.85;6.80;;;11.40;99.90;;;;;;5026420;28;20048;-78
2021/12/31 12:07:37;;;;;;;11.82;5.97;;;11.40;99.90;;;;;;5036677;28;20090;-78
2021/12/31 12:10:02;;;;;;;19.52;6.70;;;11.20;99.90;;;;;;5013156;28;20756;-77
2021/12/31 12:12:32;;;;;;;14.00;6.55;;;11.30;99.90;;;;;;5055431;28;20044;-77
2021/12/31 12:15:01;;;;;;;15.80;6.43;;;11.30;99.90;;;;;;5037116;28;20048;-77
2021/12/31 12:17:29;;;;;;;14.00;6.30;;;11.40;99.90;;;;;;5057082;28;20036;-79
2021/12/31 12:20:01;;;;;;;13.02;6.28;;;11.40;99.90;;;;;;5055654;28;20036;-78
2021/12/31 12:22:27;;;;;;;11.73;5.93;;;11.40;99.90;;;;;;5023104;28;20067;-78
2021/12/31 12:24:57;;;;;;;9.98;5.50;;;11.30;99.90;;;;;;5036914;28;20409;-77
2021/12/31 12:27:24;;;;;;;11.70;5.50;;;11.40;99.90;;;;;;5034293;28;20037;-79
2021/12/31 12:29:51;;;;;;;11.38;5.38;;;11.20;99.90;;;;;;5026138;28;20416;-76
2021/12/31 12:32:28;;;;;;;14.80;5.20;;;11.30;99.90;;;;;;5024946;28;20036;-77
2021/12/31 12:34:54;;;;;;;13.55;6.10;;;11.40;99.90;;;;;;5007250;28;20044;-77
2021/12/31 12:37:26;;;;;;;13.85;5.85;;;11.30;99.90;;;;;;5028897;28;20131;-77
2021/12/31 12:40:04;;;;;;;14.23;6.10;;;11.40;99.90;;;;;;5010274;28;20037;-77
2021/12/31 12:42:29;;;;;;;17.45;6.05;;;11.20;99.90;;;;;;5014524;28;20405;-77